sensor_id;sensor_type;location;lat;lon;timestamp;P1;durP1;ratioP1;P2;durP2;ratioP2
31994;SDS011;51311;50.870;7.048;2022-07-30T00:02:48;1.30;;;0.60;;
31994;SDS011;51311;50.870;7.048;2022-07-30T00:06:49;1.70;;;0.60;;
31994;SDS011;51311;50.870;7.048;2022-07-30T00:10:49;1.10;;;0.50;;
31994;SDS011;51311;50.870;7.048;2022-07-30T00:14:49;0.80;;;0.40;;
31994;SDS011;51311;50.870;7.048;2022-07-30T00:18:49;0.70;;;0.50;;
31994;SDS011;51311;50.870;7.048;2022-07-30T00:22:49;1.00;;;0.40;;
31994;SDS011;51311;50.870;7.048;2022-07-30T00:26:49;1.10;;;0.60;;
31994;SDS011;51311;50.870;7.048;2022-07-30T00:30:49;1.10;;;0.50;;
31994;SDS011;51311;50.870;7.048;2022-07-30T00:34:50;1.00;;;0.40;;
31994;SDS011;51311;50.870;7.048;2022-07-30T00:38:50;1.00;;;0.50;;
31994;SDS011;51311;50.870;7.048;2022-07-30T00:42:50;0.90;;;0.50;;
31994;SDS011;51311;50.870;7.048;2022-07-30T00:46:50;0.40;;;0.40;;
31994;SDS011;51311;50.870;7.048;2022-07-30T00:50:50;1.20;;;0.60;;
31994;SDS011;51311;50.870;7.048;2022-07-30T00:54:50;1.10;;;0.60;;
31994;SDS011;51311;50.870;7.048;2022-07-30T00:58:51;1.70;;;0.60;;
31994;SDS011;51311;50.870;7.048;2022-07-30T01:02:51;1.10;;;0.60;;
31994;SDS011;51311;50.870;7.048;2022-07-30T01:06:51;1.10;;;0.60;;
31994;SDS011;51311;50.870;7.048;2022-07-30T01:10:51;2.10;;;0.70;;
31994;SDS011;51311;50.870;7.048;2022-07-30T01:14:51;0.60;;;0.40;;
31994;SDS011;51311;50.870;7.048;2022-07-30T01:18:51;0.80;;;0.40;;
31994;SDS011;51311;50.870;7.048;2022-07-30T01:26:53;0.30;;;0.30;;
31994;SDS011;51311;50.870;7.048;2022-07-30T01:30:53;0.60;;;0.40;;
31994;SDS011;51311;50.870;7.048;2022-07-30T01:34:54;0.90;;;0.50;;
31994;SDS011;51311;50.870;7.048;2022-07-30T01:38:54;1.30;;;0.40;;
31994;SDS011;51311;50.870;7.048;2022-07-30T01:42:54;1.30;;;0.60;;
31994;SDS011;51311;50.870;7.048;2022-07-30T01:46:54;0.60;;;0.40;;
31994;SDS011;51311;50.870;7.048;2022-07-30T01:50:55;1.50;;;0.50;;
31994;SDS011;51311;50.870;7.048;2022-07-30T01:54:54;1.00;;;0.50;;
31994;SDS011;51311;50.870;7.048;2022-07-30T01:58:55;3.00;;;0.80;;
31994;SDS011;51311;50.870;7.048;2022-07-30T02:02:55;1.30;;;0.60;;
31994;SDS011;51311;50.870;7.048;2022-07-30T02:06:58;1.50;;;0.60;;
31994;SDS011;51311;50.870;7.048;2022-07-30T02:10:57;0.90;;;0.60;;
31994;SDS011;51311;50.870;7.048;2022-07-30T02:15:16;1.50;;;0.60;;
31994;SDS011;51311;50.870;7.048;2022-07-30T02:23:01;0.70;;;0.40;;
31994;SDS011;51311;50.870;7.048;2022-07-30T02:26:59;1.00;;;0.40;;
31994;SDS011;51311;50.870;7.048;2022-07-30T02:30:57;0.80;;;0.60;;
31994;SDS011;51311;50.870;7.048;2022-07-30T02:34:58;1.40;;;0.50;;
31994;SDS011;51311;50.870;7.048;2022-07-30T02:38:56;0.90;;;0.50;;
31994;SDS011;51311;50.870;7.048;2022-07-30T02:46:56;1.10;;;0.50;;
31994;SDS011;51311;50.870;7.048;2022-07-30T02:50:57;1.00;;;0.60;;
31994;SDS011;51311;50.870;7.048;2022-07-30T02:54:57;0.80;;;0.50;;
31994;SDS011;51311;50.870;7.048;2022-07-30T02:58:57;0.90;;;0.60;;
31994;SDS011;51311;50.870;7.048;2022-07-30T03:02:57;0.60;;;0.40;;
31994;SDS011;51311;50.870;7.048;2022-07-30T03:06:58;1.20;;;0.60;;
31994;SDS011;51311;50.870;7.048;2022-07-30T03:10:57;0.90;;;0.50;;
31994;SDS011;51311;50.870;7.048;2022-07-30T03:14:58;0.70;;;0.50;;
31994;SDS011;51311;50.870;7.048;2022-07-30T03:18:58;0.90;;;0.60;;
31994;SDS011;51311;50.870;7.048;2022-07-30T03:22:58;1.10;;;0.50;;
31994;SDS011;51311;50.870;7.048;2022-07-30T03:26:58;0.60;;;0.40;;
31994;SDS011;51311;50.870;7.048;2022-07-30T03:30:58;1.40;;;0.70;;
31994;SDS011;51311;50.870;7.048;2022-07-30T03:34:58;1.40;;;0.40;;
31994;SDS011;51311;50.870;7.048;2022-07-30T03:38:58;1.00;;;0.40;;
31994;SDS011;51311;50.870;7.048;2022-07-30T03:42:59;0.70;;;0.40;;
31994;SDS011;51311;50.870;7.048;2022-07-30T03:46:59;0.90;;;0.50;;
31994;SDS011;51311;50.870;7.048;2022-07-30T03:51:00;0.80;;;0.50;;
31994;SDS011;51311;50.870;7.048;2022-07-30T03:54:59;0.90;;;0.50;;
31994;SDS011;51311;50.870;7.048;2022-07-30T03:59:00;1.20;;;0.50;;
31994;SDS011;51311;50.870;7.048;2022-07-30T04:02:59;1.70;;;0.50;;
31994;SDS011;51311;50.870;7.048;2022-07-30T04:07:00;1.10;;;0.60;;
31994;SDS011;51311;50.870;7.048;2022-07-30T04:11:00;0.80;;;0.40;;
31994;SDS011;51311;50.870;7.048;2022-07-30T04:15:00;1.20;;;0.40;;
31994;SDS011;51311;50.870;7.048;2022-07-30T04:19:00;0.80;;;0.50;;
31994;SDS011;51311;50.870;7.048;2022-07-30T04:23:00;0.80;;;0.40;;
31994;SDS011;51311;50.870;7.048;2022-07-30T04:27:00;1.50;;;0.40;;
31994;SDS011;51311;50.870;7.048;2022-07-30T04:35:01;0.30;;;0.30;;
31994;SDS011;51311;50.870;7.048;2022-07-30T04:39:01;0.70;;;0.40;;
31994;SDS011;51311;50.870;7.048;2022-07-30T04:43:01;0.80;;;0.60;;
31994;SDS011;51311;50.870;7.048;2022-07-30T04:47:01;0.80;;;0.40;;
31994;SDS011;51311;50.870;7.048;2022-07-30T04:51:01;0.90;;;0.50;;
31994;SDS011;51311;50.870;7.048;2022-07-30T04:55:02;0.80;;;0.50;;
31994;SDS011;51311;50.870;7.048;2022-07-30T04:59:02;0.70;;;0.40;;
31994;SDS011;51311;50.870;7.048;2022-07-30T05:03:02;0.70;;;0.50;;
31994;SDS011;51311;50.870;7.048;2022-07-30T05:07:02;0.90;;;0.40;;
31994;SDS011;51311;50.870;7.048;2022-07-30T05:11:02;0.80;;;0.50;;
31994;SDS011;51311;50.870;7.048;2022-07-30T05:15:03;1.20;;;0.40;;
31994;SDS011;51311;50.870;7.048;2022-07-30T05:19:02;0.60;;;0.40;;
31994;SDS011;51311;50.870;7.048;2022-07-30T05:23:03;0.80;;;0.30;;
31994;SDS011;51311;50.870;7.048;2022-07-30T05:27:03;0.80;;;0.50;;
31994;SDS011;51311;50.870;7.048;2022-07-30T05:31:03;1.00;;;0.50;;
31994;SDS011;51311;50.870;7.048;2022-07-30T05:35:03;0.70;;;0.30;;
31994;SDS011;51311;50.870;7.048;2022-07-30T05:39:03;0.70;;;0.40;;
31994;SDS011;51311;50.870;7.048;2022-07-30T05:43:03;0.80;;;0.30;;
31994;SDS011;51311;50.870;7.048;2022-07-30T05:47:04;1.00;;;0.60;;
31994;SDS011;51311;50.870;7.048;2022-07-30T05:51:04;0.60;;;0.50;;
31994;SDS011;51311;50.870;7.048;2022-07-30T05:55:04;0.80;;;0.50;;
31994;SDS011;51311;50.870;7.048;2022-07-30T05:59:04;0.60;;;0.40;;
31994;SDS011;51311;50.870;7.048;2022-07-30T06:03:04;0.50;;;0.40;;
31994;SDS011;51311;50.870;7.048;2022-07-30T06:07:04;1.00;;;0.50;;
31994;SDS011;51311;50.870;7.048;2022-07-30T06:11:04;1.00;;;0.40;;
31994;SDS011;51311;50.870;7.048;2022-07-30T06:15:05;0.90;;;0.50;;
31994;SDS011;51311;50.870;7.048;2022-07-30T06:19:05;8.90;;;2.40;;
31994;SDS011;51311;50.870;7.048;2022-07-30T06:23:05;4.30;;;2.00;;
31994;SDS011;51311;50.870;7.048;2022-07-30T06:27:05;5.50;;;2.60;;
31994;SDS011;51311;50.870;7.048;2022-07-30T06:31:05;7.10;;;2.10;;
31994;SDS011;51311;50.870;7.048;2022-07-30T06:35:06;9.10;;;2.50;;
31994;SDS011;51311;50.870;7.048;2022-07-30T06:39:06;3.50;;;2.30;;
31994;SDS011;51311;50.870;7.048;2022-07-30T06:43:06;5.30;;;2.50;;
31994;SDS011;51311;50.870;7.048;2022-07-30T06:47:06;5.20;;;2.50;;
31994;SDS011;51311;50.870;7.048;2022-07-30T06:51:07;5.10;;;2.50;;
31994;SDS011;51311;50.870;7.048;2022-07-30T06:55:07;6.90;;;2.30;;
31994;SDS011;51311;50.870;7.048;2022-07-30T06:59:07;5.60;;;2.50;;
31994;SDS011;51311;50.870;7.048;2022-07-30T07:03:07;6.50;;;2.80;;
31994;SDS011;51311;50.870;7.048;2022-07-30T07:07:08;7.70;;;2.50;;
31994;SDS011;51311;50.870;7.048;2022-07-30T07:11:08;5.80;;;3.10;;
31994;SDS011;51311;50.870;7.048;2022-07-30T07:15:08;10.90;;;3.70;;
31994;SDS011;51311;50.870;7.048;2022-07-30T07:19:08;11.20;;;3.30;;
31994;SDS011;51311;50.870;7.048;2022-07-30T07:23:08;6.10;;;3.00;;
31994;SDS011;51311;50.870;7.048;2022-07-30T07:27:09;10.60;;;3.10;;
31994;SDS011;51311;50.870;7.048;2022-07-30T07:31:09;5.70;;;3.00;;
31994;SDS011;51311;50.870;7.048;2022-07-30T07:35:09;10.40;;;4.10;;
31994;SDS011;51311;50.870;7.048;2022-07-30T07:39:09;9.20;;;4.10;;
31994;SDS011;51311;50.870;7.048;2022-07-30T07:43:10;8.80;;;3.80;;
31994;SDS011;51311;50.870;7.048;2022-07-30T07:47:10;9.90;;;4.60;;
31994;SDS011;51311;50.870;7.048;2022-07-30T07:51:10;9.50;;;4.80;;
31994;SDS011;51311;50.870;7.048;2022-07-30T07:55:10;8.60;;;4.70;;
31994;SDS011;51311;50.870;7.048;2022-07-30T07:59:11;10.10;;;4.90;;
31994;SDS011;51311;50.870;7.048;2022-07-30T08:03:11;10.80;;;4.90;;
31994;SDS011;51311;50.870;7.048;2022-07-30T08:07:11;13.00;;;4.80;;
31994;SDS011;51311;50.870;7.048;2022-07-30T08:11:11;8.80;;;4.50;;
31994;SDS011;51311;50.870;7.048;2022-07-30T08:15:12;9.90;;;4.90;;
31994;SDS011;51311;50.870;7.048;2022-07-30T08:19:12;8.50;;;3.90;;
31994;SDS011;51311;50.870;7.048;2022-07-30T08:23:12;9.70;;;3.90;;
31994;SDS011;51311;50.870;7.048;2022-07-30T08:27:12;10.40;;;3.90;;
31994;SDS011;51311;50.870;7.048;2022-07-30T08:31:13;8.40;;;4.10;;
31994;SDS011;51311;50.870;7.048;2022-07-30T08:35:13;10.40;;;4.40;;
31994;SDS011;51311;50.870;7.048;2022-07-30T08:39:13;8.30;;;4.40;;
31994;SDS011;51311;50.870;7.048;2022-07-30T08:43:13;7.60;;;4.00;;
31994;SDS011;51311;50.870;7.048;2022-07-30T08:47:15;7.80;;;4.10;;
31994;SDS011;51311;50.870;7.048;2022-07-30T08:51:14;6.60;;;3.60;;
31994;SDS011;51311;50.870;7.048;2022-07-30T08:55:14;9.10;;;3.40;;
31994;SDS011;51311;50.870;7.048;2022-07-30T08:59:15;8.10;;;3.20;;
31994;SDS011;51311;50.870;7.048;2022-07-30T09:03:15;5.40;;;3.30;;
31994;SDS011;51311;50.870;7.048;2022-07-30T09:07:15;5.40;;;2.70;;
31994;SDS011;51311;50.870;7.048;2022-07-30T09:11:15;5.40;;;2.70;;
31994;SDS011;51311;50.870;7.048;2022-07-30T09:15:16;5.00;;;2.80;;
31994;SDS011;51311;50.870;7.048;2022-07-30T09:19:17;5.40;;;2.40;;
31994;SDS011;51311;50.870;7.048;2022-07-30T09:23:16;6.00;;;2.80;;
31994;SDS011;51311;50.870;7.048;2022-07-30T09:27:16;4.10;;;2.20;;
31994;SDS011;51311;50.870;7.048;2022-07-30T09:31:16;7.70;;;2.40;;
31994;SDS011;51311;50.870;7.048;2022-07-30T09:35:17;5.80;;;2.60;;
31994;SDS011;51311;50.870;7.048;2022-07-30T09:39:30;6.90;;;2.50;;
31994;SDS011;51311;50.870;7.048;2022-07-30T09:43:17;3.20;;;2.10;;
31994;SDS011;51311;50.870;7.048;2022-07-30T09:47:38;6.10;;;2.20;;
31994;SDS011;51311;50.870;7.048;2022-07-30T09:55:31;3.30;;;1.80;;
31994;SDS011;51311;50.870;7.048;2022-07-30T09:59:24;3.50;;;2.00;;
31994;SDS011;51311;50.870;7.048;2022-07-30T10:07:19;4.50;;;2.20;;
31994;SDS011;51311;50.870;7.048;2022-07-30T10:11:21;3.10;;;1.70;;
31994;SDS011;51311;50.870;7.048;2022-07-30T10:15:19;4.40;;;2.60;;
31994;SDS011;51311;50.870;7.048;2022-07-30T10:19:19;3.90;;;2.20;;
31994;SDS011;51311;50.870;7.048;2022-07-30T10:23:19;4.20;;;2.50;;
31994;SDS011;51311;50.870;7.048;2022-07-30T10:27:20;4.30;;;2.60;;
31994;SDS011;51311;50.870;7.048;2022-07-30T10:31:20;3.70;;;2.20;;
31994;SDS011;51311;50.870;7.048;2022-07-30T10:35:20;6.30;;;2.50;;
31994;SDS011;51311;50.870;7.048;2022-07-30T10:39:23;5.60;;;2.30;;
31994;SDS011;51311;50.870;7.048;2022-07-30T10:43:27;4.50;;;2.20;;
31994;SDS011;51311;50.870;7.048;2022-07-30T10:47:21;8.60;;;1.90;;
31994;SDS011;51311;50.870;7.048;2022-07-30T10:51:21;6.20;;;2.50;;
31994;SDS011;51311;50.870;7.048;2022-07-30T10:55:22;3.40;;;1.90;;
31994;SDS011;51311;50.870;7.048;2022-07-30T10:59:21;3.30;;;1.70;;
31994;SDS011;51311;50.870;7.048;2022-07-30T11:03:22;4.00;;;1.90;;
31994;SDS011;51311;50.870;7.048;2022-07-30T11:15:22;6.60;;;1.50;;
31994;SDS011;51311;50.870;7.048;2022-07-30T11:19:22;3.30;;;1.60;;
31994;SDS011;51311;50.870;7.048;2022-07-30T11:27:42;1.60;;;1.00;;
31994;SDS011;51311;50.870;7.048;2022-07-30T11:31:24;6.60;;;1.70;;
31994;SDS011;51311;50.870;7.048;2022-07-30T11:39:23;4.50;;;1.90;;
31994;SDS011;51311;50.870;7.048;2022-07-30T11:43:24;2.40;;;1.10;;
31994;SDS011;51311;50.870;7.048;2022-07-30T11:47:24;8.00;;;1.40;;
31994;SDS011;51311;50.870;7.048;2022-07-30T11:51:23;2.10;;;1.20;;
31994;SDS011;51311;50.870;7.048;2022-07-30T11:55:25;3.60;;;1.20;;
31994;SDS011;51311;50.870;7.048;2022-07-30T11:59:23;2.70;;;1.50;;
31994;SDS011;51311;50.870;7.048;2022-07-30T12:03:24;5.10;;;1.80;;
31994;SDS011;51311;50.870;7.048;2022-07-30T12:07:24;7.20;;;1.20;;
31994;SDS011;51311;50.870;7.048;2022-07-30T12:11:24;2.00;;;1.20;;
31994;SDS011;51311;50.870;7.048;2022-07-30T12:15:27;3.90;;;1.20;;
31994;SDS011;51311;50.870;7.048;2022-07-30T12:19:24;5.70;;;1.30;;
31994;SDS011;51311;50.870;7.048;2022-07-30T12:23:25;3.40;;;1.40;;
31994;SDS011;51311;50.870;7.048;2022-07-30T12:27:25;2.80;;;1.20;;
31994;SDS011;51311;50.870;7.048;2022-07-30T12:31:25;4.90;;;1.30;;
31994;SDS011;51311;50.870;7.048;2022-07-30T12:35:45;2.50;;;1.00;;
31994;SDS011;51311;50.870;7.048;2022-07-30T12:39:25;4.10;;;1.50;;
31994;SDS011;51311;50.870;7.048;2022-07-30T12:43:46;2.90;;;1.50;;
31994;SDS011;51311;50.870;7.048;2022-07-30T12:47:26;4.00;;;1.50;;
31994;SDS011;51311;50.870;7.048;2022-07-30T12:51:28;2.50;;;1.20;;
31994;SDS011;51311;50.870;7.048;2022-07-30T12:55:28;3.00;;;1.40;;
31994;SDS011;51311;50.870;7.048;2022-07-30T12:59:26;2.40;;;1.10;;
31994;SDS011;51311;50.870;7.048;2022-07-30T13:03:27;4.50;;;1.30;;
31994;SDS011;51311;50.870;7.048;2022-07-30T13:07:26;3.10;;;1.10;;
31994;SDS011;51311;50.870;7.048;2022-07-30T13:11:36;2.80;;;1.30;;
31994;SDS011;51311;50.870;7.048;2022-07-30T13:15:26;5.00;;;1.20;;
31994;SDS011;51311;50.870;7.048;2022-07-30T13:19:27;2.80;;;1.00;;
31994;SDS011;51311;50.870;7.048;2022-07-30T13:23:27;1.50;;;1.00;;
31994;SDS011;51311;50.870;7.048;2022-07-30T13:27:27;2.80;;;1.50;;
31994;SDS011;51311;50.870;7.048;2022-07-30T13:31:27;2.10;;;1.60;;
31994;SDS011;51311;50.870;7.048;2022-07-30T13:35:27;1.70;;;0.90;;
31994;SDS011;51311;50.870;7.048;2022-07-30T13:39:27;1.30;;;0.70;;
31994;SDS011;51311;50.870;7.048;2022-07-30T13:43:28;3.60;;;1.30;;
31994;SDS011;51311;50.870;7.048;2022-07-30T13:47:28;2.70;;;0.90;;
31994;SDS011;51311;50.870;7.048;2022-07-30T13:51:28;1.40;;;0.80;;
31994;SDS011;51311;50.870;7.048;2022-07-30T13:55:28;1.70;;;1.00;;
31994;SDS011;51311;50.870;7.048;2022-07-30T13:59:28;1.20;;;0.80;;
31994;SDS011;51311;50.870;7.048;2022-07-30T14:03:28;2.10;;;0.90;;
31994;SDS011;51311;50.870;7.048;2022-07-30T14:07:28;2.30;;;0.80;;
31994;SDS011;51311;50.870;7.048;2022-07-30T14:11:29;2.70;;;1.10;;
31994;SDS011;51311;50.870;7.048;2022-07-30T14:15:29;1.00;;;0.70;;
31994;SDS011;51311;50.870;7.048;2022-07-30T14:19:29;1.40;;;0.90;;
31994;SDS011;51311;50.870;7.048;2022-07-30T14:23:29;2.30;;;1.00;;
31994;SDS011;51311;50.870;7.048;2022-07-30T14:27:29;1.50;;;0.80;;
31994;SDS011;51311;50.870;7.048;2022-07-30T14:31:29;1.60;;;0.80;;
31994;SDS011;51311;50.870;7.048;2022-07-30T14:35:30;1.70;;;1.10;;
31994;SDS011;51311;50.870;7.048;2022-07-30T14:39:30;1.80;;;0.80;;
31994;SDS011;51311;50.870;7.048;2022-07-30T14:43:30;4.20;;;0.90;;
31994;SDS011;51311;50.870;7.048;2022-07-30T14:47:30;1.80;;;0.70;;
31994;SDS011;51311;50.870;7.048;2022-07-30T14:51:30;1.40;;;0.80;;
31994;SDS011;51311;50.870;7.048;2022-07-30T14:55:30;1.90;;;0.60;;
31994;SDS011;51311;50.870;7.048;2022-07-30T14:59:30;1.40;;;0.80;;
31994;SDS011;51311;50.870;7.048;2022-07-30T15:03:31;1.30;;;0.70;;
31994;SDS011;51311;50.870;7.048;2022-07-30T15:07:31;1.20;;;0.70;;
31994;SDS011;51311;50.870;7.048;2022-07-30T15:11:31;1.10;;;0.70;;
31994;SDS011;51311;50.870;7.048;2022-07-30T15:15:31;1.60;;;0.70;;
31994;SDS011;51311;50.870;7.048;2022-07-30T15:19:31;1.30;;;0.70;;
31994;SDS011;51311;50.870;7.048;2022-07-30T15:23:31;2.20;;;0.90;;
31994;SDS011;51311;50.870;7.048;2022-07-30T15:27:32;2.40;;;0.90;;
31994;SDS011;51311;50.870;7.048;2022-07-30T15:31:32;1.10;;;0.70;;
31994;SDS011;51311;50.870;7.048;2022-07-30T15:35:32;3.40;;;0.60;;
31994;SDS011;51311;50.870;7.048;2022-07-30T15:39:32;2.10;;;0.70;;
31994;SDS011;51311;50.870;7.048;2022-07-30T15:43:32;1.30;;;0.70;;
31994;SDS011;51311;50.870;7.048;2022-07-30T15:47:32;2.70;;;0.90;;
31994;SDS011;51311;50.870;7.048;2022-07-30T15:51:32;1.00;;;0.60;;
31994;SDS011;51311;50.870;7.048;2022-07-30T15:55:33;1.60;;;0.50;;
31994;SDS011;51311;50.870;7.048;2022-07-30T15:59:33;3.00;;;0.90;;
31994;SDS011;51311;50.870;7.048;2022-07-30T16:03:33;1.00;;;0.60;;
31994;SDS011;51311;50.870;7.048;2022-07-30T16:07:33;2.80;;;0.60;;
31994;SDS011;51311;50.870;7.048;2022-07-30T16:11:33;2.10;;;0.60;;
31994;SDS011;51311;50.870;7.048;2022-07-30T16:15:33;1.10;;;0.50;;
31994;SDS011;51311;50.870;7.048;2022-07-30T16:19:34;1.00;;;0.60;;
31994;SDS011;51311;50.870;7.048;2022-07-30T16:27:34;0.80;;;0.50;;
31994;SDS011;51311;50.870;7.048;2022-07-30T16:31:35;1.20;;;0.60;;
31994;SDS011;51311;50.870;7.048;2022-07-30T16:35:34;0.60;;;0.40;;
31994;SDS011;51311;50.870;7.048;2022-07-30T16:39:34;0.90;;;0.40;;
31994;SDS011;51311;50.870;7.048;2022-07-30T16:43:35;0.90;;;0.60;;
31994;SDS011;51311;50.870;7.048;2022-07-30T16:47:35;1.90;;;0.60;;
31994;SDS011;51311;50.870;7.048;2022-07-30T16:51:35;1.20;;;0.40;;
31994;SDS011;51311;50.870;7.048;2022-07-30T16:55:35;6.60;;;0.60;;
31994;SDS011;51311;50.870;7.048;2022-07-30T16:59:35;1.30;;;0.50;;
31994;SDS011;51311;50.870;7.048;2022-07-30T17:03:35;0.80;;;0.50;;
31994;SDS011;51311;50.870;7.048;2022-07-30T17:07:35;3.90;;;0.60;;
31994;SDS011;51311;50.870;7.048;2022-07-30T17:11:36;0.80;;;0.50;;
31994;SDS011;51311;50.870;7.048;2022-07-30T17:15:36;0.80;;;0.40;;
31994;SDS011;51311;50.870;7.048;2022-07-30T17:19:36;0.70;;;0.50;;
31994;SDS011;51311;50.870;7.048;2022-07-30T17:23:36;1.30;;;0.50;;
31994;SDS011;51311;50.870;7.048;2022-07-30T17:27:36;0.60;;;0.50;;
31994;SDS011;51311;50.870;7.048;2022-07-30T17:31:36;1.10;;;0.80;;
31994;SDS011;51311;50.870;7.048;2022-07-30T17:35:37;1.20;;;0.70;;
31994;SDS011;51311;50.870;7.048;2022-07-30T17:39:37;2.30;;;0.70;;
31994;SDS011;51311;50.870;7.048;2022-07-30T17:43:37;0.70;;;0.40;;
31994;SDS011;51311;50.870;7.048;2022-07-30T17:47:37;4.80;;;0.70;;
31994;SDS011;51311;50.870;7.048;2022-07-30T17:51:37;1.80;;;0.50;;
31994;SDS011;51311;50.870;7.048;2022-07-30T17:55:37;0.80;;;0.50;;
31994;SDS011;51311;50.870;7.048;2022-07-30T17:59:38;1.40;;;0.80;;
31994;SDS011;51311;50.870;7.048;2022-07-30T18:03:38;0.90;;;0.40;;
31994;SDS011;51311;50.870;7.048;2022-07-30T18:07:38;1.80;;;0.80;;
31994;SDS011;51311;50.870;7.048;2022-07-30T18:11:38;1.40;;;0.70;;
31994;SDS011;51311;50.870;7.048;2022-07-30T18:15:39;1.30;;;0.70;;
31994;SDS011;51311;50.870;7.048;2022-07-30T18:19:38;1.40;;;0.50;;
31994;SDS011;51311;50.870;7.048;2022-07-30T18:23:39;0.90;;;0.40;;
31994;SDS011;51311;50.870;7.048;2022-07-30T18:27:39;1.40;;;0.80;;
31994;SDS011;51311;50.870;7.048;2022-07-30T18:35:41;1.00;;;0.50;;
31994;SDS011;51311;50.870;7.048;2022-07-30T18:39:41;1.20;;;0.60;;
31994;SDS011;51311;50.870;7.048;2022-07-30T18:43:41;1.10;;;0.60;;
31994;SDS011;51311;50.870;7.048;2022-07-30T18:47:41;4.70;;;0.60;;
31994;SDS011;51311;50.870;7.048;2022-07-30T18:51:41;0.90;;;0.60;;
31994;SDS011;51311;50.870;7.048;2022-07-30T18:55:42;1.00;;;0.60;;
31994;SDS011;51311;50.870;7.048;2022-07-30T18:59:41;1.00;;;0.60;;
31994;SDS011;51311;50.870;7.048;2022-07-30T19:03:42;1.00;;;0.50;;
31994;SDS011;51311;50.870;7.048;2022-07-30T19:07:42;0.50;;;0.40;;
31994;SDS011;51311;50.870;7.048;2022-07-30T19:11:42;0.60;;;0.50;;
31994;SDS011;51311;50.870;7.048;2022-07-30T19:15:42;2.30;;;0.40;;
31994;SDS011;51311;50.870;7.048;2022-07-30T19:19:42;1.20;;;0.50;;
31994;SDS011;51311;50.870;7.048;2022-07-30T19:23:42;0.70;;;0.40;;
31994;SDS011;51311;50.870;7.048;2022-07-30T19:27:43;0.50;;;0.40;;
31994;SDS011;51311;50.870;7.048;2022-07-30T19:31:43;0.90;;;0.40;;
31994;SDS011;51311;50.870;7.048;2022-07-30T19:35:43;1.60;;;0.60;;
31994;SDS011;51311;50.870;7.048;2022-07-30T19:39:43;1.90;;;0.60;;
31994;SDS011;51311;50.870;7.048;2022-07-30T19:43:43;2.10;;;0.60;;
31994;SDS011;51311;50.870;7.048;2022-07-30T19:47:43;0.60;;;0.40;;
31994;SDS011;51311;50.870;7.048;2022-07-30T19:51:44;0.90;;;0.40;;
31994;SDS011;51311;50.870;7.048;2022-07-30T19:55:44;0.70;;;0.40;;
31994;SDS011;51311;50.870;7.048;2022-07-30T19:59:44;0.90;;;0.40;;
31994;SDS011;51311;50.870;7.048;2022-07-30T20:03:44;1.10;;;0.70;;
31994;SDS011;51311;50.870;7.048;2022-07-30T20:07:44;1.70;;;0.60;;
31994;SDS011;51311;50.870;7.048;2022-07-30T20:11:44;1.40;;;0.60;;
31994;SDS011;51311;50.870;7.048;2022-07-30T20:15:45;0.70;;;0.40;;
31994;SDS011;51311;50.870;7.048;2022-07-30T20:19:45;1.00;;;0.60;;
31994;SDS011;51311;50.870;7.048;2022-07-30T20:23:45;2.00;;;0.50;;
31994;SDS011;51311;50.870;7.048;2022-07-30T20:27:45;1.60;;;0.50;;
31994;SDS011;51311;50.870;7.048;2022-07-30T20:31:45;1.20;;;0.60;;
31994;SDS011;51311;50.870;7.048;2022-07-30T20:35:45;0.60;;;0.30;;
31994;SDS011;51311;50.870;7.048;2022-07-30T20:39:45;0.60;;;0.40;;
31994;SDS011;51311;50.870;7.048;2022-07-30T20:43:46;0.90;;;0.70;;
31994;SDS011;51311;50.870;7.048;2022-07-30T20:47:46;0.60;;;0.40;;
31994;SDS011;51311;50.870;7.048;2022-07-30T20:51:46;1.00;;;0.40;;
31994;SDS011;51311;50.870;7.048;2022-07-30T20:55:46;0.70;;;0.50;;
31994;SDS011;51311;50.870;7.048;2022-07-30T20:59:46;0.90;;;0.30;;
31994;SDS011;51311;50.870;7.048;2022-07-30T21:03:46;0.90;;;0.50;;
31994;SDS011;51311;50.870;7.048;2022-07-30T21:07:47;0.90;;;0.40;;
31994;SDS011;51311;50.870;7.048;2022-07-30T21:11:47;1.20;;;0.50;;
31994;SDS011;51311;50.870;7.048;2022-07-30T21:15:47;0.80;;;0.50;;
31994;SDS011;51311;50.870;7.048;2022-07-30T21:19:47;0.50;;;0.30;;
31994;SDS011;51311;50.870;7.048;2022-07-30T21:23:47;1.00;;;0.50;;
31994;SDS011;51311;50.870;7.048;2022-07-30T21:27:47;1.20;;;0.50;;
31994;SDS011;51311;50.870;7.048;2022-07-30T21:31:48;1.00;;;0.50;;
31994;SDS011;51311;50.870;7.048;2022-07-30T21:35:48;1.20;;;0.50;;
31994;SDS011;51311;50.870;7.048;2022-07-30T21:39:48;0.90;;;0.50;;
31994;SDS011;51311;50.870;7.048;2022-07-30T21:43:48;0.90;;;0.50;;
31994;SDS011;51311;50.870;7.048;2022-07-30T21:47:48;0.90;;;0.50;;
31994;SDS011;51311;50.870;7.048;2022-07-30T21:51:48;1.60;;;0.70;;
31994;SDS011;51311;50.870;7.048;2022-07-30T21:55:49;0.90;;;0.50;;
31994;SDS011;51311;50.870;7.048;2022-07-30T21:59:49;0.70;;;0.40;;
31994;SDS011;51311;50.870;7.048;2022-07-30T22:03:49;0.50;;;0.30;;
31994;SDS011;51311;50.870;7.048;2022-07-30T22:07:49;1.30;;;0.60;;
31994;SDS011;51311;50.870;7.048;2022-07-30T22:11:49;1.90;;;0.60;;
31994;SDS011;51311;50.870;7.048;2022-07-30T22:15:49;1.00;;;0.40;;
31994;SDS011;51311;50.870;7.048;2022-07-30T22:19:50;0.60;;;0.40;;
31994;SDS011;51311;50.870;7.048;2022-07-30T22:23:50;0.70;;;0.40;;
31994;SDS011;51311;50.870;7.048;2022-07-30T22:27:50;0.80;;;0.30;;
31994;SDS011;51311;50.870;7.048;2022-07-30T22:31:50;1.20;;;0.70;;
31994;SDS011;51311;50.870;7.048;2022-07-30T22:35:50;1.00;;;0.50;;
31994;SDS011;51311;50.870;7.048;2022-07-30T22:39:50;0.50;;;0.40;;
31994;SDS011;51311;50.870;7.048;2022-07-30T22:43:50;0.70;;;0.40;;
31994;SDS011;51311;50.870;7.048;2022-07-30T22:47:51;1.90;;;0.40;;
31994;SDS011;51311;50.870;7.048;2022-07-30T22:51:51;0.60;;;0.30;;
31994;SDS011;51311;50.870;7.048;2022-07-30T22:59:51;0.70;;;0.50;;
31994;SDS011;51311;50.870;7.048;2022-07-30T23:03:51;1.80;;;0.60;;
31994;SDS011;51311;50.870;7.048;2022-07-30T23:07:51;2.10;;;0.60;;
31994;SDS011;51311;50.870;7.048;2022-07-30T23:11:52;1.00;;;0.60;;
31994;SDS011;51311;50.870;7.048;2022-07-30T23:15:52;1.00;;;0.50;;
31994;SDS011;51311;50.870;7.048;2022-07-30T23:19:52;1.20;;;0.70;;
31994;SDS011;51311;50.870;7.048;2022-07-30T23:23:52;1.30;;;0.60;;
31994;SDS011;51311;50.870;7.048;2022-07-30T23:31:53;0.80;;;0.40;;
31994;SDS011;51311;50.870;7.048;2022-07-30T23:35:53;1.10;;;0.50;;
31994;SDS011;51311;50.870;7.048;2022-07-30T23:43:53;0.90;;;0.50;;
31994;SDS011;51311;50.870;7.048;2022-07-30T23:47:53;1.20;;;0.50;;
31994;SDS011;51311;50.870;7.048;2022-07-30T23:51:53;0.90;;;0.40;;
31994;SDS011;51311;50.870;7.048;2022-07-30T23:55:53;1.20;;;0.60;;
31994;SDS011;51311;50.870;7.048;2022-07-30T23:59:54;1.00;;;0.40;;
